Time;durP1;ratioP1;P1;durP2;ratioP2;P2;SDS_P1;SDS_P2;PMS_P1;PMS_P2;Temp;Humidity;BMP_temperature;BMP_pressure;BME280_temperature;BME280_humidity;BME280_pressure;Samples;Min_cycle;Max_cycle;Signal;HPM_P1;HPM_P2
2023/05/25 00:04:53;;;;;;;1.83;1.05;;;;;;;17.97;60.10;96857.25;10452223;28;20293;-28
2023/05/25 00:09:53;;;;;;;1.77;1.30;;;;;;;17.96;60.39;96855.56;10457241;28;20036;-28
2023/05/25 00:14:53;;;;;;;1.00;0.90;;;;;;;17.94;60.05;96859.78;10464839;28;20405;-28
2023/05/25 00:19:56;;;;;;;1.33;1.10;;;;;;;17.94;60.02;96857.25;10458613;28;20040;-28
2023/05/25 00:24:57;;;;;;;1.60;1.50;;;;;;;18.04;62.57;96848.84;10450546;28;20183;-28
2023/05/25 00:29:57;;;;;;;3.17;1.77;;;;;;;18.17;66.28;96848.06;10455778;28;20470;-28
2023/05/25 00:34:58;;;;;;;3.50;1.70;;;;;;;18.20;65.53;96843.00;10452204;28;20029;-28
2023/05/25 00:39:58;;;;;;;1.87;1.17;;;;;;;18.07;63.26;96838.75;10457058;28;20072;-28
2023/05/25 00:45:01;;;;;;;1.23;1.13;;;;;;;18.02;60.97;96845.47;10455612;28;20481;-28
2023/05/25 00:50:04;;;;;;;1.70;1.20;;;;;;;18.00;60.63;96834.50;10463107;28;20089;-28
2023/05/25 00:55:07;;;;;;;1.50;1.38;;;;;;;17.98;60.41;96833.66;10451380;28;20285;-28
2023/05/25 01:00:11;;;;;;;1.58;1.08;;;;;;;17.96;60.26;96831.09;10454221;28;20041;-28
2023/05/25 01:05:13;;;;;;;1.67;1.27;;;;;;;17.95;59.96;96826.00;10464705;28;20025;-28
2023/05/25 01:10:15;;;;;;;1.50;1.40;;;;;;;17.93;59.69;96830.25;10451938;28;20113;-28
2023/05/25 01:15:16;;;;;;;1.55;1.17;;;;;;;17.93;59.84;96826.00;10442918;28;20044;-28
2023/05/25 01:20:18;;;;;;;0.93;0.93;;;;;;;17.93;59.84;96826.00;10454811;28;20429;-28
2023/05/25 01:25:24;;;;;;;2.63;1.00;;;;;;;17.90;59.71;96815.88;10430956;28;20029;-27
2023/05/25 01:30:26;;;;;;;2.22;1.60;;;;;;;18.09;65.76;96816.78;10440519;28;20062;-28
2023/05/25 01:35:27;;;;;;;1.75;1.35;;;;;;;18.15;65.81;96819.34;10441429;28;20028;-28
2023/05/25 01:40:28;;;;;;;1.38;1.25;;;;;;;18.16;63.67;96821.84;10447989;28;20037;-28
2023/05/25 01:45:31;;;;;;;1.27;1.05;;;;;;;18.02;62.98;96822.66;10451642;28;20439;-28
2023/05/25 01:50:53;;;;;;;1.42;1.00;;;;;;;17.99;60.68;96825.19;10456146;28;20435;-28
2023/05/25 01:56:01;;;;;;;1.70;1.20;;;;;;;17.96;60.38;96815.03;10453762;28;20112;-28
2023/05/25 02:01:03;;;;;;;1.63;1.40;;;;;;;17.95;60.21;96814.22;10437266;28;20043;-28
2023/05/25 02:06:04;;;;;;;1.13;1.02;;;;;;;17.94;60.22;96811.66;10463404;28;20390;-28
2023/05/25 02:11:09;;;;;;;0.93;0.82;;;;;;;17.91;60.14;96812.50;10454863;28;20040;-28
2023/05/25 02:16:09;;;;;;;1.70;0.98;;;;;;;17.91;59.86;96801.53;10454292;28;20052;-28
2023/05/25 02:21:10;;;;;;;1.50;0.80;;;;;;;17.91;59.70;96801.53;10454365;28;20123;-28
2023/05/25 02:26:10;;;;;;;1.17;1.08;;;;;;;17.86;59.88;96788.00;10474126;28;20139;-28
2023/05/25 02:31:11;;;;;;;0.95;0.88;;;;;;;17.94;60.66;96791.41;10434787;28;20028;-28
2023/05/25 02:36:12;;;;;;;2.65;1.90;;;;;;;18.10;65.77;96790.59;10465874;28;20044;-28
2023/05/25 02:41:14;;;;;;;1.95;1.50;;;;;;;18.15;65.14;96797.38;10438007;28;20465;-28
2023/05/25 02:46:15;;;;;;;1.63;1.10;;;;;;;18.06;63.35;96781.28;10452923;28;20025;-28
2023/05/25 02:51:15;;;;;;;1.97;1.47;;;;;;;17.99;61.87;96782.13;10447428;28;20509;-28
2023/05/25 02:56:16;;;;;;;1.40;1.00;;;;;;;17.95;60.39;96793.94;10451088;28;20404;-28
2023/05/25 03:01:19;;;;;;;1.42;1.33;;;;;;;17.96;60.17;96785.50;10461202;28;20279;-28
2023/05/25 03:06:25;;;;;;;1.75;1.15;;;;;;;17.97;59.87;96799.84;10447464;28;20033;-28
2023/05/25 03:11:30;;;;;;;1.60;0.90;;;;;;;18.00;59.71;96807.44;10455992;28;20032;-28
2023/05/25 03:16:34;;;;;;;1.35;1.25;;;;;;;18.01;59.40;96808.31;10436531;28;20140;-28
2023/05/25 03:21:36;;;;;;;1.23;1.00;;;;;;;18.01;59.22;96816.75;10442884;28;20040;-29
2023/05/25 03:26:40;;;;;;;1.63;1.08;;;;;;;18.01;59.03;96815.91;10442980;28;20174;-28
2023/05/25 03:31:40;;;;;;;1.27;1.17;;;;;;;18.00;59.42;96811.69;10442003;28;20108;-28
2023/05/25 03:36:46;;;;;;;2.08;1.50;;;;;;;18.13;65.46;96808.34;10441308;28;20366;-28
2023/05/25 03:41:48;;;;;;;;;;;;;;;18.18;65.64;96810.03;10441323;28;20037;-29
2023/05/25 03:46:49;;;;;;;2.28;1.27;;;;;;;18.15;61.49;96811.75;10441122;28;19917;-28
2023/05/25 03:51:50;;;;;;;1.48;1.20;;;;;;;18.08;60.00;96813.38;10456640;28;20408;-28
2023/05/25 03:56:50;;;;;;;1.10;0.83;;;;;;;18.05;59.73;96812.53;10455560;28;20027;-28
2023/05/25 04:01:51;;;;;;;1.20;1.10;;;;;;;18.03;59.77;96811.69;10459599;28;20294;-28
2023/05/25 04:06:51;;;;;;;1.05;0.82;;;;;;;18.02;59.89;96815.06;10448150;28;20036;-28
2023/05/25 04:11:51;;;;;;;1.17;1.07;;;;;;;18.03;59.45;96817.63;10442940;28;20044;-27
2023/05/25 04:16:52;;;;;;;1.13;0.90;;;;;;;18.04;59.50;96820.97;10432820;28;20040;-28
2023/05/25 04:21:53;;;;;;;0.85;0.73;;;;;;;18.05;59.39;96812.53;10440709;28;20302;-28
2023/05/25 04:26:55;;;;;;;1.40;1.20;;;;;;;18.05;59.34;96812.53;10431814;28;20511;-31
2023/05/25 04:31:57;;;;;;;1.20;1.10;;;;;;;18.04;59.38;96810.84;10434645;28;20093;-28
2023/05/25 04:37:16;;;;;;;1.05;0.88;;;;;;;18.04;59.24;96814.25;10454291;28;20029;-29
2023/05/25 04:42:16;;;;;;;4.50;1.77;;;;;;;18.18;63.60;96826.94;10460175;28;20052;-29
2023/05/25 04:47:18;;;;;;;2.17;1.60;;;;;;;18.22;62.41;96836.22;10430739;28;20035;-29
2023/05/25 04:52:18;;;;;;;4.90;2.08;;;;;;;18.05;58.60;96822.66;10431373;28;20032;-28
2023/05/25 04:57:19;;;;;;;5.80;2.33;;;;;;;17.84;56.84;96823.44;10447589;28;20504;-28
2023/05/25 05:02:20;;;;;;;11.05;3.40;;;;;;;17.81;56.25;96817.50;10441928;28;20083;-28
2023/05/25 05:07:21;;;;;;;6.25;2.00;;;;;;;17.95;57.73;96831.09;10447739;28;20032;-28
2023/05/25 05:12:22;;;;;;;3.60;1.50;;;;;;;17.97;58.52;96837.00;10457426;28;20408;-27
2023/05/25 05:17:26;;;;;;;3.88;1.80;;;;;;;17.99;58.38;96840.41;10455139;28;20119;-28
2023/05/25 05:22:27;;;;;;;3.80;2.72;;;;;;;17.99;59.79;96848.81;10448847;28;20400;-27
2023/05/25 05:27:27;;;;;;;2.97;1.60;;;;;;;18.00;58.26;96852.22;10432761;28;20045;-28
2023/05/25 05:32:35;;;;;;;6.97;1.88;;;;;;;17.74;56.39;96858.88;10442477;28;20044;-28
2023/05/25 05:37:36;;;;;;;3.25;1.80;;;;;;;17.88;57.35;96857.22;10437293;28;20413;-28
2023/05/25 05:42:36;;;;;;;7.10;2.70;;;;;;;17.95;59.00;96841.22;10441611;28;20033;-28
2023/05/25 05:47:37;;;;;;;6.43;2.80;;;;;;;18.08;60.09;96859.00;10447192;28;20670;-28
2023/05/25 05:52:37;;;;;;;7.53;2.93;;;;;;;18.11;59.49;96855.63;10458238;28;20103;-27
2023/05/25 05:57:37;;;;;;;3.85;1.45;;;;;;;18.02;57.00;96845.47;10448863;28;20108;-28
2023/05/25 06:02:38;;;;;;;2.20;1.27;;;;;;;17.97;56.74;96842.91;10438346;28;20095;-28
2023/05/25 06:07:39;;;;;;;2.28;1.20;;;;;;;17.96;56.77;96847.97;10465755;28;20032;-29
2023/05/25 06:12:39;;;;;;;3.40;1.38;;;;;;;17.94;56.58;96842.06;10437034;28;20055;-28
2023/05/25 06:17:42;;;;;;;1.80;1.15;;;;;;;17.93;56.21;96840.38;10440356;28;20041;-28
2023/05/25 06:22:44;;;;;;;1.90;1.50;;;;;;;17.89;56.49;96836.13;10446430;28;20033;-28
2023/05/25 06:27:44;;;;;;;1.60;1.15;;;;;;;17.93;56.38;96840.38;10457632;28;20439;-28
2023/05/25 06:32:46;;;;;;;1.23;1.10;;;;;;;17.93;56.49;96845.44;10435997;28;20102;-28
2023/05/25 06:37:48;;;;;;;2.00;1.30;;;;;;;17.93;56.44;96835.31;10448317;28;20025;-27
2023/05/25 06:42:48;;;;;;;1.88;1.48;;;;;;;17.92;56.25;96841.22;10439353;28;20067;-28
2023/05/25 06:48:07;;;;;;;7.55;3.00;;;;;;;18.05;60.87;96850.53;10463995;28;20226;-27
2023/05/25 06:53:10;;;;;;;6.53;2.50;;;;;;;18.10;60.94;96864.94;10435114;28;20037;-28
2023/05/25 06:58:10;;;;;;;6.18;1.88;;;;;;;18.09;58.89;96865.75;10456872;28;20031;-28
2023/05/25 07:03:10;;;;;;;1.85;1.27;;;;;;;18.02;56.69;96865.72;10458987;28;20035;-28
2023/05/25 07:08:11;;;;;;;1.20;1.10;;;;;;;17.98;56.30;96871.63;10459287;28;20049;-28
2023/05/25 07:13:12;;;;;;;1.40;1.13;;;;;;;17.95;56.40;96877.53;10465602;28;20029;-29
2023/05/25 07:18:13;;;;;;;2.17;1.23;;;;;;;17.91;56.17;96874.97;10465332;28;20029;-28
2023/05/25 07:23:13;;;;;;;1.88;1.13;;;;;;;17.92;56.13;96887.63;10459005;28;20036;-28
2023/05/25 07:28:14;;;;;;;1.43;1.23;;;;;;;17.91;56.10;96892.72;10464610;28;20063;-28
2023/05/25 07:33:14;;;;;;;1.00;0.90;;;;;;;17.91;56.29;96892.72;10462386;28;20066;-28
2023/05/25 07:38:14;;;;;;;1.80;1.47;;;;;;;17.91;56.00;96890.19;10458006;28;20024;-27
2023/05/25 07:43:15;;;;;;;1.73;1.20;;;;;;;17.90;56.02;96891.84;10463541;28;20036;-29
2023/05/25 07:48:15;;;;;;;1.40;1.30;;;;;;;17.92;56.33;96914.66;10466333;28;20082;-28
2023/05/25 07:53:15;;;;;;;5.23;2.57;;;;;;;18.06;61.31;96928.22;10459141;28;20310;-28
2023/05/25 07:58:16;;;;;;;10.13;2.70;;;;;;;18.12;61.32;96930.81;10459405;28;20021;-28
2023/05/25 08:03:16;;;;;;;2.57;1.60;;;;;;;18.10;58.93;96907.16;10451110;28;20036;-28
2023/05/25 08:08:17;;;;;;;1.75;1.27;;;;;;;18.00;57.05;96913.03;10457979;28;20302;-27
2023/05/25 08:13:18;;;;;;;1.35;1.15;;;;;;;17.95;56.35;96907.06;10462853;28;20029;-28
2023/05/25 08:18:18;;;;;;;1.67;1.33;;;;;;;17.91;56.15;96902.84;10458422;28;20032;-28
2023/05/25 08:23:18;;;;;;;1.20;1.10;;;;;;;17.93;56.29;96911.28;10450028;28;20035;-28
2023/05/25 08:28:21;;;;;;;1.53;1.37;;;;;;;17.92;56.19;96909.59;10454222;28;20029;-28
2023/05/25 08:33:21;;;;;;;1.00;0.90;;;;;;;17.90;56.05;96909.59;10453498;28;20282;-28
2023/05/25 08:38:24;;;;;;;2.20;1.07;;;;;;;17.90;56.22;96912.13;10455655;28;20033;-28
2023/05/25 08:43:25;;;;;;;2.20;1.38;;;;;;;17.90;56.21;96923.94;10466301;28;20412;-28
2023/05/25 08:48:29;;;;;;;2.20;1.20;;;;;;;17.90;56.23;96929.00;10464937;28;20069;-28
2023/05/25 08:53:33;;;;;;;1.60;1.13;;;;;;;17.91;56.38;96948.44;10462763;28;20321;-29
2023/05/25 08:58:42;;;;;;;4.07;1.98;;;;;;;18.07;62.07;96935.03;10469949;28;20053;-28
2023/05/25 09:03:43;;;;;;;3.75;2.33;;;;;;;18.10;62.49;96943.47;10461314;28;20029;-28
2023/05/25 09:08:44;;;;;;;2.45;1.60;;;;;;;18.05;58.54;96949.34;10457173;28;20099;-28
2023/05/25 09:13:44;;;;;;;3.13;1.45;;;;;;;17.98;56.64;96951.00;10465442;28;20033;-27
2023/05/25 09:18:45;;;;;;;1.83;1.27;;;;;;;17.94;56.47;96958.56;10465371;28;20492;-28
2023/05/25 09:23:46;;;;;;;1.25;1.10;;;;;;;17.92;56.69;96966.16;10461577;28;20029;-28
2023/05/25 09:28:47;;;;;;;1.90;1.20;;;;;;;17.92;56.43;96967.84;10459303;28;20037;-28
2023/05/25 09:33:47;;;;;;;1.15;1.05;;;;;;;17.91;56.19;96979.66;10459839;28;20029;-28
2023/05/25 09:38:47;;;;;;;1.75;1.23;;;;;;;17.88;56.30;96979.66;10457946;28;20029;-28
2023/05/25 09:43:48;;;;;;;1.17;1.07;;;;;;;17.89;56.30;96980.47;10458908;28;20603;-28
2023/05/25 09:48:52;;;;;;;2.37;1.20;;;;;;;17.89;56.36;96990.63;10461183;28;20299;-28
2023/05/25 09:53:52;;;;;;;3.08;1.73;;;;;;;17.90;58.52;96982.22;10459461;28;20032;-28
2023/05/25 09:58:53;;;;;;;2.40;1.87;;;;;;;17.92;58.26;96995.72;10459483;28;20571;-28
2023/05/25 10:03:58;;;;;;;3.17;2.33;;;;;;;18.07;62.36;97000.88;10453155;28;20283;-28
2023/05/25 10:08:59;;;;;;;4.53;2.03;;;;;;;18.08;59.68;97002.59;10457176;28;20068;-28
2023/05/25 10:14:04;;;;;;;3.47;1.70;;;;;;;18.01;57.75;96994.06;10463349;28;20409;-27
2023/05/25 10:19:11;;;;;;;2.45;1.30;;;;;;;17.96;56.61;97005.03;10463008;28;20106;-28
2023/05/25 10:24:23;;;;;;;5.28;1.30;;;;;;;17.92;57.50;97013.44;10470937;28;20085;-29
2023/05/25 10:29:25;;;;;;;1.55;1.20;;;;;;;17.90;57.06;97007.53;10459544;28;20041;-28
2023/05/25 10:34:26;;;;;;;1.83;1.13;;;;;;;17.87;56.76;97003.28;10461636;28;20064;-28
2023/05/25 10:39:27;;;;;;;2.42;1.30;;;;;;;17.90;56.64;97015.13;10454877;28;20033;-28
2023/05/25 10:44:29;;;;;;;4.07;1.60;;;;;;;17.89;56.41;97008.34;10459223;28;20029;-28
2023/05/25 10:49:32;;;;;;;2.00;1.30;;;;;;;17.88;56.61;97020.19;10470467;28;20075;-28
2023/05/25 10:54:34;;;;;;;3.92;1.40;;;;;;;17.87;56.60;97012.56;10470946;28;20090;-28
2023/05/25 10:59:39;;;;;;;2.33;1.42;;;;;;;17.87;56.51;97022.69;10440045;28;20029;-29
2023/05/25 11:04:39;;;;;;;9.32;2.92;;;;;;;18.00;59.81;97029.56;10457847;28;20416;-27
2023/05/25 11:09:42;;;;;;;16.97;3.33;;;;;;;18.14;61.12;97027.94;10461179;28;20040;-28
2023/05/25 11:14:43;;;;;;;7.65;2.50;;;;;;;18.18;59.68;97034.72;10457218;28;20066;-28
2023/05/25 11:19:52;;;;;;;4.22;2.05;;;;;;;18.06;58.00;97021.97;10461805;28;20040;-28
2023/05/25 11:24:52;;;;;;;3.85;1.85;;;;;;;17.98;56.78;97031.22;10476496;28;20029;-29
2023/05/25 11:29:55;;;;;;;15.93;2.20;;;;;;;17.97;57.33;97026.97;10486862;28;20485;-28
2023/05/25 11:34:56;;;;;;;6.07;1.70;;;;;;;17.93;57.09;97030.34;10463694;28;20112;-28
2023/05/25 11:39:56;;;;;;;17.67;3.88;;;;;;;17.92;58.04;97026.13;10458124;28;20047;-28
2023/05/25 11:45:01;;;;;;;19.17;4.03;;;;;;;17.91;58.37;97030.31;10460594;28;20045;-28
2023/05/25 11:50:01;;;;;;;11.15;2.97;;;;;;;17.92;58.62;97026.13;10458321;28;20025;-28
2023/05/25 11:55:10;;;;;;;21.50;3.90;;;;;;;17.92;58.74;97031.19;10472580;28;20485;-28
2023/05/25 12:00:11;;;;;;;19.67;3.90;;;;;;;17.90;58.91;97033.69;10451281;28;20721;-28
2023/05/25 12:05:14;;;;;;;24.60;3.42;;;;;;;17.87;58.32;97027.75;10451865;28;20044;-28
2023/05/25 12:10:15;;;;;;;13.00;2.72;;;;;;;17.92;60.42;97019.34;10463425;28;20040;-28
2023/05/25 12:15:20;;;;;;;16.65;4.03;;;;;;;18.15;62.47;97024.59;10450158;28;20366;-27
2023/05/25 12:20:20;;;;;;;10.82;2.63;;;;;;;18.16;60.85;97016.16;10463971;28;20120;-28
2023/05/25 12:25:23;;;;;;;10.85;2.25;;;;;;;18.08;59.89;97020.31;10463930;28;20033;-28
2023/05/25 12:30:27;;;;;;;15.38;2.97;;;;;;;18.03;59.68;97014.34;10449486;28;20028;-28
2023/05/25 12:35:28;;;;;;;8.68;2.63;;;;;;;17.96;59.08;97012.63;10464893;28;20052;-28
2023/05/25 12:40:29;;;;;;;8.57;2.13;;;;;;;17.95;59.27;97016.84;10463673;28;20455;-28
2023/05/25 12:45:29;;;;;;;11.73;3.40;;;;;;;17.93;59.66;97012.63;10448924;28;20068;-28
2023/05/25 12:50:30;;;;;;;13.50;3.90;;;;;;;17.93;59.57;97005.00;10452471;28;20082;-29
2023/05/25 12:55:31;;;;;;;8.33;3.00;;;;;;;17.92;59.15;96998.25;10457574;28;20024;-28
2023/05/25 13:00:38;;;;;;;8.45;2.53;;;;;;;17.93;59.29;97007.53;10457786;28;20064;-28
2023/05/25 13:05:38;;;;;;;9.05;3.17;;;;;;;17.92;59.39;97000.78;10458276;28;20483;-28
2023/05/25 13:10:39;;;;;;;9.27;3.23;;;;;;;17.92;59.21;97010.91;10454001;28;20037;-28
2023/05/25 13:15:39;;;;;;;8.47;3.93;;;;;;;17.97;62.78;97004.19;10448730;28;20047;-28
2023/05/25 13:20:40;;;;;;;4.77;2.80;;;;;;;18.14;61.78;96997.53;10457616;28;20682;-28
2023/05/25 13:25:40;;;;;;;7.07;3.90;;;;;;;18.18;61.47;96995.00;10456915;28;20778;-27
2023/05/25 13:30:41;;;;;;;10.90;3.33;;;;;;;18.11;60.07;96992.44;10456868;28;20056;-30
2023/05/25 13:35:57;;;;;;;8.67;4.00;;;;;;;18.05;60.73;96993.28;10476399;28;20024;-26
2023/05/25 13:40:57;;;;;;;16.20;4.32;;;;;;;18.03;60.81;96994.09;10482495;28;20374;-26
2023/05/25 13:45:58;;;;;;;11.48;3.53;;;;;;;17.99;60.81;96982.25;10455428;28;20224;-27
2023/05/25 13:50:58;;;;;;;16.65;4.07;;;;;;;17.95;61.78;96976.31;10460003;28;20049;-26
2023/05/25 13:55:59;;;;;;;16.80;4.38;;;;;;;17.96;60.73;96992.34;10473676;28;20036;-29
2023/05/25 14:00:59;;;;;;;19.92;5.13;;;;;;;17.96;61.47;96998.28;10470707;28;20044;-27
2023/05/25 14:06:00;;;;;;;15.03;5.13;;;;;;;17.94;60.36;96994.03;10464808;28;20044;-28
2023/05/25 14:11:00;;;;;;;10.23;3.40;;;;;;;17.99;61.66;96984.78;10472108;28;20037;-27
2023/05/25 14:16:02;;;;;;;10.70;4.57;;;;;;;18.02;60.56;96988.19;10458718;28;20025;-27
2023/05/25 14:21:02;;;;;;;9.25;4.95;;;;;;;18.09;62.68;96994.13;10456570;28;20318;-28
2023/05/25 14:26:03;;;;;;;13.07;4.78;;;;;;;18.23;64.30;96993.38;10472267;28;20047;-27
2023/05/25 14:31:03;;;;;;;14.35;4.38;;;;;;;18.26;63.00;97002.69;10456699;28;20115;-28
2023/05/25 14:36:04;;;;;;;7.88;4.00;;;;;;;18.16;61.63;97003.47;10464591;28;20124;-26
2023/05/25 14:41:05;;;;;;;7.82;3.67;;;;;;;18.08;60.58;96995.81;10471944;28;20061;-27
2023/05/25 14:46:06;;;;;;;9.53;4.17;;;;;;;18.03;60.74;96994.09;10465721;28;20035;-28
2023/05/25 14:51:08;;;;;;;8.43;3.67;;;;;;;18.03;61.05;96999.16;10472355;28;20291;-27
2023/05/25 14:56:09;;;;;;;7.22;3.45;;;;;;;18.02;60.86;96994.94;10456175;28;20029;-27
2023/05/25 15:01:09;;;;;;;8.67;3.63;;;;;;;18.00;60.51;97010.13;10453799;28;20032;-28
2023/05/25 15:06:09;;;;;;;10.27;3.03;;;;;;;17.97;60.51;96997.44;10464987;28;20425;-27
2023/05/25 15:11:10;;;;;;;8.73;3.13;;;;;;;17.97;60.63;97006.72;10467495;28;20069;-28
2023/05/25 15:16:14;;;;;;;7.63;3.13;;;;;;;17.98;60.64;97011.81;10465491;28;20100;-27
2023/05/25 15:21:15;;;;;;;8.25;3.70;;;;;;;17.96;60.42;97018.53;10467596;28;20036;-28
2023/05/25 15:26:15;;;;;;;9.05;3.65;;;;;;;18.10;62.67;97005.97;10469034;28;20503;-28
2023/05/25 15:31:16;;;;;;;6.90;4.70;;;;;;;18.25;63.40;97009.41;10471166;28;20537;-27
2023/05/25 15:36:16;;;;;;;6.00;3.83;;;;;;;18.28;62.85;97016.19;10454358;28;20409;-27
2023/05/25 15:41:17;;;;;;;9.95;4.07;;;;;;;18.17;62.22;97015.31;10466962;28;20032;-28
2023/05/25 15:46:17;;;;;;;5.77;3.10;;;;;;;18.08;60.94;97015.25;10455594;28;20110;-27
2023/05/25 15:51:17;;;;;;;5.07;3.00;;;;;;;18.06;60.73;97021.97;10450004;28;20075;-27
2023/05/25 15:56:18;;;;;;;5.22;3.30;;;;;;;18.02;60.67;97033.81;10461716;28;20279;-28
2023/05/25 16:01:18;;;;;;;7.53;3.00;;;;;;;18.01;60.52;97036.31;10458561;28;20036;-28
2023/05/25 16:06:22;;;;;;;9.80;4.10;;;;;;;18.03;62.00;97043.09;10455310;28;20112;-28
2023/05/25 16:11:22;;;;;;;12.23;4.78;;;;;;;18.00;60.68;97032.91;10457177;28;20313;-29
2023/05/25 16:16:23;;;;;;;9.00;3.67;;;;;;;17.90;61.80;97018.50;10452073;28;20043;-28
2023/05/25 16:21:23;;;;;;;6.03;3.07;;;;;;;18.03;61.13;97027.88;10459888;28;20040;-28
2023/05/25 16:26:24;;;;;;;11.33;2.60;;;;;;;17.99;60.89;97038.81;10471595;28;20041;-27
2023/05/25 16:31:24;;;;;;;9.15;3.88;;;;;;;18.12;62.85;97042.28;10449450;28;20306;-28
2023/05/25 16:36:24;;;;;;;9.50;4.27;;;;;;;18.26;63.41;97039.00;10449737;28;20582;-28
2023/05/25 16:41:26;;;;;;;6.73;3.80;;;;;;;18.31;62.88;97041.59;10465636;28;20291;-28
2023/05/25 16:46:26;;;;;;;6.68;3.38;;;;;;;18.20;62.69;97038.13;10449250;28;20552;-28
2023/05/25 16:51:27;;;;;;;6.13;3.20;;;;;;;18.08;60.89;97038.88;10462259;28;20037;-28
2023/05/25 16:56:27;;;;;;;6.00;2.93;;;;;;;18.04;60.30;97043.91;10465518;28;20037;-28
2023/05/25 17:01:27;;;;;;;6.53;2.85;;;;;;;18.03;60.54;97044.75;10456660;28;20047;-28
2023/05/25 17:06:28;;;;;;;8.90;3.43;;;;;;;18.02;60.56;97043.06;10476856;28;20510;-28
2023/05/25 17:11:28;;;;;;;8.90;3.00;;;;;;;18.01;60.42;97041.38;10464609;28;20037;-28
2023/05/25 17:16:28;;;;;;;5.20;2.80;;;;;;;18.02;60.43;97049.00;10467645;28;20485;-29
2023/05/25 17:21:29;;;;;;;5.17;3.00;;;;;;;18.02;60.53;97049.00;10477883;28;20024;-28
2023/05/25 17:26:30;;;;;;;4.47;3.38;;;;;;;18.05;60.80;97054.06;10475556;28;20111;-28
2023/05/25 17:31:30;;;;;;;3.40;2.63;;;;;;;18.09;60.10;97063.38;10467847;28;20032;-28
2023/05/25 17:36:31;;;;;;;10.45;3.45;;;;;;;18.18;62.43;97060.06;10476593;28;20048;-27
2023/05/25 17:41:31;;;;;;;8.83;5.73;;;;;;;18.32;65.39;97066.13;10469606;28;20029;-27
2023/05/25 17:46:32;;;;;;;5.17;3.50;;;;;;;18.32;61.21;97068.66;10458613;28;20044;-28
2023/05/25 17:51:32;;;;;;;5.05;2.58;;;;;;;18.24;59.57;97075.31;10469497;28;20075;-28
2023/05/25 17:56:32;;;;;;;6.37;2.83;;;;;;;18.20;60.07;97071.94;10471320;28;20033;-28
2023/05/25 18:01:33;;;;;;;15.70;4.57;;;;;;;18.19;61.86;97082.91;10455407;28;20047;-28
2023/05/25 18:06:35;;;;;;;8.77;4.20;;;;;;;18.15;61.62;97087.94;10471808;28;20033;-28
2023/05/25 18:11:36;;;;;;;8.27;3.95;;;;;;;18.10;62.35;97082.84;10471342;28;20036;-28
2023/05/25 18:16:38;;;;;;;9.43;4.00;;;;;;;18.07;61.82;97092.94;10468074;28;20493;-33
2023/05/25 18:21:39;;;;;;;9.63;3.63;;;;;;;18.06;61.53;97095.44;10470583;28;20782;-33
2023/05/25 18:26:41;;;;;;;6.30;3.17;;;;;;;18.04;61.60;97097.13;10475480;28;20171;-33
2023/05/25 18:31:45;;;;;;;13.57;3.85;;;;;;;18.03;63.20;97095.44;10453469;28;20029;-32
2023/05/25 18:36:45;;;;;;;6.13;2.85;;;;;;;18.20;62.66;97096.41;10463325;28;20033;-32
2023/05/25 18:41:46;;;;;;;7.60;4.50;;;;;;;18.32;65.69;97092.28;10467175;28;20044;-34
2023/05/25 18:46:49;;;;;;;6.30;3.85;;;;;;;18.36;62.53;97101.63;10463870;28;20320;-32
2023/05/25 18:51:49;;;;;;;12.07;4.30;;;;;;;18.19;61.56;97112.44;10464345;28;20037;-34
2023/05/25 18:56:50;;;;;;;8.17;3.33;;;;;;;18.16;61.49;97107.38;10455028;28;20041;-33
2023/05/25 19:01:50;;;;;;;2.38;2.00;;;;;;;18.10;60.91;97112.38;10463061;28;20040;-32
2023/05/25 19:06:51;;;;;;;3.30;2.80;;;;;;;18.06;60.48;97108.97;10460128;28;20047;-33
2023/05/25 19:11:51;;;;;;;3.30;2.60;;;;;;;18.05;60.74;97116.56;10466116;28;20041;-34
2023/05/25 19:16:51;;;;;;;3.77;2.80;;;;;;;18.03;60.51;97120.78;10463416;28;20106;-32
2023/05/25 19:21:52;;;;;;;4.50;2.80;;;;;;;17.98;59.78;97114.84;10473880;28;20020;-33
2023/05/25 19:26:53;;;;;;;4.53;2.60;;;;;;;18.00;60.10;97116.53;10447710;28;20509;-32
2023/05/25 19:31:53;;;;;;;3.00;2.70;;;;;;;18.00;59.93;97123.28;10449789;28;20038;-33
2023/05/25 19:36:54;;;;;;;4.23;3.10;;;;;;;17.98;59.81;97128.34;10461406;28;20037;-33
2023/05/25 19:41:55;;;;;;;6.35;2.05;;;;;;;18.00;62.00;97131.72;10456171;28;20052;-33
2023/05/25 19:46:55;;;;;;;3.95;2.58;;;;;;;18.21;60.06;97151.31;10452276;28;20041;-33
2023/05/25 19:51:55;;;;;;;3.20;2.47;;;;;;;18.31;60.36;97153.13;10458673;28;20036;-33
2023/05/25 19:56:56;;;;;;;2.20;2.00;;;;;;;18.18;59.66;97161.44;10455616;28;20489;-33
2023/05/25 20:01:56;;;;;;;4.37;1.40;;;;;;;18.13;59.07;97158.88;10460495;28;20290;-33
2023/05/25 20:06:56;;;;;;;2.43;1.50;;;;;;;18.10;58.76;97174.06;10453341;28;20670;-32
2023/05/25 20:11:57;;;;;;;3.57;1.60;;;;;;;18.09;58.73;97176.56;10449233;28;20291;-34
2023/05/25 20:16:58;;;;;;;2.22;1.45;;;;;;;18.05;58.71;97174.81;10470321;28;20055;-32
2023/05/25 20:22:00;;;;;;;2.22;1.60;;;;;;;18.06;58.68;97181.59;10471255;28;20032;-32
2023/05/25 20:27:02;;;;;;;1.90;1.60;;;;;;;18.06;58.65;97174.84;10464587;28;20045;-32
2023/05/25 20:32:03;;;;;;;2.28;1.40;;;;;;;18.05;58.62;97184.97;10461124;28;20081;-31
2023/05/25 20:37:03;;;;;;;2.58;1.67;;;;;;;18.05;58.73;97178.22;10464934;28;20029;-32
2023/05/25 20:42:04;;;;;;;2.37;1.43;;;;;;;18.05;58.68;97190.91;10465651;28;20101;-33
2023/05/25 20:47:04;;;;;;;3.40;1.60;;;;;;;18.05;58.76;97179.91;10461862;28;20040;-34
2023/05/25 20:52:05;;;;;;;5.45;3.83;;;;;;;18.26;66.17;97190.22;10451174;28;20408;-31
2023/05/25 20:57:06;;;;;;;5.15;3.97;;;;;;;18.33;66.49;97186.94;10461556;28;20039;-32
2023/05/25 21:02:07;;;;;;;3.55;2.28;;;;;;;18.27;61.87;97189.41;10463766;28;20029;-32
2023/05/25 21:07:07;;;;;;;4.32;2.00;;;;;;;18.14;59.31;97174.91;10455130;28;20025;-32
2023/05/25 21:12:08;;;;;;;2.40;1.95;;;;;;;18.17;59.01;97185.91;10449927;28;20044;-32
2023/05/25 21:17:08;;;;;;;3.97;1.80;;;;;;;18.16;58.98;97196.06;10459918;28;20397;-31
2023/05/25 21:22:10;;;;;;;3.40;1.83;;;;;;;18.13;59.00;97193.47;10463875;28;20100;-32
2023/05/25 21:27:10;;;;;;;2.38;1.80;;;;;;;18.12;59.19;97201.94;10464633;28;20386;-31
2023/05/25 21:32:11;;;;;;;2.63;1.80;;;;;;;18.10;58.96;97208.66;10444039;28;20032;-31
2023/05/25 21:37:11;;;;;;;5.03;1.90;;;;;;;18.07;58.85;97196.81;10458776;28;20025;-31
2023/05/25 21:42:12;;;;;;;2.33;1.67;;;;;;;18.08;58.89;97202.75;10456840;28;20151;-32
2023/05/25 21:47:12;;;;;;;1.93;1.73;;;;;;;18.05;58.68;97200.16;10456172;28;20292;-32
2023/05/25 21:52:12;;;;;;;3.57;2.30;;;;;;;18.05;58.74;97205.22;10478431;28;20733;-32
2023/05/25 21:57:13;;;;;;;7.67;3.93;;;;;;;18.24;65.81;97213.03;10468436;28;20386;-33
2023/05/25 22:02:13;;;;;;;4.87;4.20;;;;;;;18.33;67.34;97197.91;10457771;28;20037;-33
2023/05/25 22:07:13;;;;;;;2.83;2.53;;;;;;;18.27;62.01;97191.94;10465261;28;20039;-33
2023/05/25 22:12:14;;;;;;;2.53;2.17;;;;;;;18.13;60.31;97196.88;10464562;28;20082;-33
2023/05/25 22:17:16;;;;;;;1.88;1.73;;;;;;;18.12;59.76;97204.47;10459239;28;20301;-33
2023/05/25 22:22:16;;;;;;;2.00;1.52;;;;;;;18.10;59.60;97213.75;10458633;28;20041;-32
2023/05/25 22:27:16;;;;;;;3.73;2.10;;;;;;;18.07;59.42;97206.13;10464342;28;20029;-32
2023/05/25 22:32:17;;;;;;;1.90;1.70;;;;;;;18.07;59.40;97208.66;10458510;28;20036;-32
2023/05/25 22:37:17;;;;;;;2.83;1.77;;;;;;;18.06;59.46;97206.94;10457186;28;20035;-32
2023/05/25 22:42:18;;;;;;;2.65;2.00;;;;;;;18.04;59.11;97203.53;10454230;28;20024;-32
2023/05/25 22:47:18;;;;;;;2.13;1.80;;;;;;;18.01;59.26;97204.34;10453830;28;20041;-32
2023/05/25 22:52:18;;;;;;;2.07;1.87;;;;;;;18.03;59.18;97207.78;10470234;28;20291;-32
2023/05/25 22:57:19;;;;;;;2.03;1.57;;;;;;;18.03;58.87;97201.84;10455528;28;20089;-32
2023/05/25 23:02:19;;;;;;;4.07;2.95;;;;;;;18.19;62.90;97196.94;10452368;28;20033;-32
2023/05/25 23:07:20;;;;;;;4.57;3.70;;;;;;;18.30;67.49;97189.44;10480159;28;20405;-33
2023/05/25 23:12:21;;;;;;;3.45;2.40;;;;;;;18.29;63.18;97187.72;10476150;28;20047;-33
2023/05/25 23:17:21;;;;;;;2.83;2.30;;;;;;;18.18;60.86;97189.31;10456186;28;20048;-32
2023/05/25 23:22:22;;;;;;;2.10;1.75;;;;;;;18.11;60.25;97190.97;10458299;28;20053;-31